computer-programming-forum.com alexa rank chart, computer-programming-forum.com alexa rank daily changes

computer-programming-forum.com alexa rank chart, computer-programming-forum.com alexa rank daily changes

computer-programming-forum.com
Actual rank:
310 172

RANK HISTORY

Date Rank Diff
2018/06/24 310 172 -20 269
2018/06/23 330 441 -23 531
2018/06/22 353 972 +150 555
2018/06/21 203 417 +48 154
2018/06/20 155 263 -71 566
2018/06/19 226 829 +123 794
2018/06/17 103 035 -235 044
2018/06/16 338 079 +132 646
2018/06/15 205 433 +8 326
2018/06/14 197 107 -11 158
2018/06/13 208 265 -7 652
2018/06/12 215 917 -741 483
2018/06/11 957 400 +744 144
2018/06/10 213 256 -138 460
2018/06/09 351 716 +67 565
2018/06/08 284 151 -88 416
2018/06/07 372 567 +190 741
2018/06/06 181 826 -50 371
2018/06/05 232 197 +39 853
2018/06/04 192 344 +59 572
2018/06/03 132 772 -300 733
2018/06/02 433 505 +314 287
2018/06/01 119 218 +584
2018/05/31 118 634 -408 401
2018/05/30 527 035 +288 845
2018/05/29 238 190 -184 568
2018/05/28 422 758 +368 467
2018/05/27 54 291 -154 217
2018/05/26 208 508 -4 510
2018/05/25 213 018 +76 697
2018/05/24 136 321 -374 455
2018/05/23 510 776 +134 952
2018/05/22 375 824 -77 551
2018/05/21 453 375 +161 099
2018/05/20 292 276 -245 253
2018/05/19 537 529 +232 128
2018/05/18 305 401 -120 734
2018/05/17 426 135 -307 956
2018/05/16 734 091 -130 823
2018/05/15 864 914 +637 063
2018/05/14 227 851 -373 508
2018/05/13 601 359 +483 345
2018/05/12 118 014 -837 586
2018/05/11 955 600 +772 394
2018/05/10 183 206 -79 509
2018/05/09 262 715 -644 471
2018/05/08 907 186 +39 871
2018/05/07 867 315 +641 196
2018/05/06 226 119 -6 335
2018/05/05 232 454 -307 103
2018/05/04 539 557 +197 092
2018/05/03 342 465 +126 062
2018/05/02 216 403 -140 979
2018/05/01 357 382 +246 733
2018/04/30 110 649 -401 155
2018/04/29 511 804 +81 475
2018/04/28 430 329 +324 470
2018/04/27 105 859 -124 116
2018/04/26 229 975 -621 417
2018/04/25 851 392

WIDGET FOR YOUR SITE

DOMAINS WITH THE NEAREST RANK

Domain Rank
ta3leem.net 310 167
brickz.my 310 168
drama-asia.se 310 169
lelongtips.com.my 310 170
wmsite.ru 310 171
computer-programming-forum.com 310 172
hcs.land 310 173
mpda.ru 310 174
kingdomnomics.com 310 175
japanese-porn.net 310 176
popcouncil.org 310 177

DOMAINS WITH THE NEAREST RANK BY TLD .com

Domain Rank
photospin.com 310 160
pegast.com 310 162
xxxteenfilms.com 310 163
bare18.com 310 165
ahlawysport.com 310 166
computer-programming-forum.com 310 172
kingdomnomics.com 310 175
clubvictoriacakes.com 310 179
kineticasports.com 310 180
learnyouahaskell.com 310 181
kepkuldes.com 310 184